createdAt,value
2017-12-31T00:00:06.412Z,73.72
2017-12-31T00:02:34.682Z,73.79
2017-12-31T00:05:06.181Z,73.72
2017-12-31T00:07:34.455Z,74.08
2017-12-31T00:10:06.125Z,74.33
2017-12-31T00:12:34.411Z,74.52
2017-12-31T00:15:08.480Z,74.87
2017-12-31T00:17:36.776Z,75.04
2017-12-31T00:20:06.792Z,75.40
2017-12-31T00:22:35.536Z,76.11
2017-12-31T00:25:07.417Z,76.32
2017-12-31T00:27:35.721Z,76.90
2017-12-31T00:30:08.229Z,77.88
2017-12-31T00:32:36.535Z,78.32
2017-12-31T00:35:07.882Z,78.30
2017-12-31T00:37:36.168Z,79.02
2017-12-31T00:40:07.372Z,79.57
2017-12-31T00:42:35.641Z,80.34
2017-12-31T00:45:06.966Z,81.67
2017-12-31T00:47:35.251Z,82.21
2017-12-31T00:50:06.508Z,82.70
2017-12-31T00:52:35.346Z,83.02
2017-12-31T00:55:07.284Z,83.56
2017-12-31T00:57:36.080Z,83.06
2017-12-31T01:00:07.908Z,83.54
2017-12-31T01:02:37.379Z,83.45
2017-12-31T01:05:06.375Z,84.05
2017-12-31T01:07:34.652Z,84.00
2017-12-31T01:10:06.301Z,84.16
2017-12-31T01:12:34.577Z,85.32
2017-12-31T01:15:07.971Z,85.51
2017-12-31T01:17:36.430Z,86.04
2017-12-31T01:20:06.241Z,86.17
2017-12-31T01:22:34.545Z,86.19
2017-12-31T01:25:06.546Z,86.21
2017-12-31T01:27:34.813Z,86.05
2017-12-31T01:30:06.284Z,86.43
2017-12-31T01:32:34.552Z,86.40
2017-12-31T01:35:06.584Z,86.58
2017-12-31T01:37:35.380Z,86.94
2017-12-31T01:40:06.580Z,87.36
2017-12-31T01:42:35.048Z,87.17
2017-12-31T01:45:06.338Z,87.77
2017-12-31T01:47:34.615Z,87.81
2017-12-31T01:50:09.847Z,87.77
2017-12-31T01:52:38.131Z,88.30
2017-12-31T01:55:07.231Z,88.25
2017-12-31T01:57:35.508Z,87.96
2017-12-31T02:00:07.212Z,87.62
2017-12-31T02:02:35.816Z,88.20
2017-12-31T02:05:07.827Z,88.83
2017-12-31T02:07:36.095Z,88.41
2017-12-31T02:10:08.231Z,89.10
2017-12-31T02:12:36.511Z,88.98
2017-12-31T02:15:06.348Z,88.69
2017-12-31T02:17:34.866Z,88.56
2017-12-31T02:20:06.138Z,87.78
2017-12-31T02:22:34.412Z,87.92
2017-12-31T02:25:09.307Z,87.92
2017-12-31T02:27:37.573Z,87.41
2017-12-31T02:30:06.997Z,86.86
2017-12-31T02:32:35.254Z,87.38
2017-12-31T02:35:07.248Z,87.30
2017-12-31T02:37:35.540Z,87.43
2017-12-31T02:40:07.680Z,87.56
2017-12-31T02:42:35.946Z,88.39
2017-12-31T02:45:07.304Z,88.39
2017-12-31T02:47:35.673Z,88.17
2017-12-31T02:50:06.404Z,88.11
2017-12-31T02:52:34.781Z,88.67
2017-12-31T02:55:09.800Z,88.58
2017-12-31T02:57:38.078Z,88.42
2017-12-31T03:00:06.346Z,89.35
2017-12-31T03:02:34.628Z,89.22
2017-12-31T03:05:06.008Z,89.22
2017-12-31T03:07:34.296Z,89.02
2017-12-31T03:10:09.724Z,88.87
2017-12-31T03:12:38.007Z,89.76
2017-12-31T03:15:06.708Z,90.64
2017-12-31T03:17:34.996Z,90.44
2017-12-31T03:20:06.606Z,89.77
2017-12-31T03:22:34.885Z,90.11
2017-12-31T03:25:10.124Z,89.84
2017-12-31T03:27:38.415Z,89.64
2017-12-31T03:30:06.676Z,89.40
2017-12-31T03:32:34.988Z,89.97
2017-12-31T03:35:06.339Z,90.09
2017-12-31T03:37:34.622Z,90.57
2017-12-31T03:40:06.199Z,90.31
2017-12-31T03:42:34.484Z,89.90
2017-12-31T03:45:06.164Z,89.16
2017-12-31T03:47:34.980Z,89.67
2017-12-31T03:50:07.082Z,89.24
2017-12-31T03:52:35.345Z,89.02
2017-12-31T03:55:06.636Z,88.72
2017-12-31T03:57:34.903Z,88.59
2017-12-31T04:00:09.909Z,88.01
2017-12-31T04:02:38.424Z,87.99
2017-12-31T04:05:06.699Z,88.39
2017-12-31T04:07:34.970Z,87.82
2017-12-31T04:10:08.032Z,88.11
2017-12-31T04:12:36.437Z,87.86
2017-12-31T04:15:09.648Z,87.81
2017-12-31T04:17:37.904Z,86.60
2017-12-31T04:20:07.288Z,86.19
2017-12-31T04:22:35.795Z,86.22
2017-12-31T04:25:06.487Z,86.08
2017-12-31T04:27:34.774Z,85.72
2017-12-31T04:30:06.300Z,84.66
2017-12-31T04:32:34.589Z,83.72
2017-12-31T04:35:05.861Z,82.88
2017-12-31T04:37:34.152Z,82.46
2017-12-31T04:40:06.305Z,82.75
2017-12-31T04:42:34.913Z,81.38
2017-12-31T04:45:10.093Z,80.41
2017-12-31T04:47:38.373Z,80.09
2017-12-31T04:50:07.393Z,80.45
2017-12-31T04:52:35.829Z,79.57
2017-12-31T04:55:07.421Z,79.22
2017-12-31T04:57:35.692Z,78.86
2017-12-31T05:00:07.029Z,78.53
2017-12-31T05:02:35.304Z,78.20
2017-12-31T05:05:06.619Z,78.40
2017-12-31T05:07:34.934Z,77.46
2017-12-31T05:10:05.548Z,76.76
2017-12-31T05:12:33.820Z,77.48
2017-12-31T05:15:05.825Z,76.48
2017-12-31T05:17:34.383Z,76.12
2017-12-31T05:20:05.556Z,75.73
2017-12-31T05:22:34.165Z,76.16
2017-12-31T05:25:06.741Z,76.35
2017-12-31T05:27:35.400Z,75.50
2017-12-31T05:30:06.592Z,75.02
2017-12-31T05:32:35.094Z,74.90
2017-12-31T05:35:07.182Z,74.18
2017-12-31T05:37:35.864Z,74.06
2017-12-31T05:40:05.656Z,74.42
2017-12-31T05:42:33.960Z,74.15
2017-12-31T05:45:05.365Z,74.47
2017-12-31T05:47:33.695Z,74.95
2017-12-31T05:50:04.927Z,74.23
2017-12-31T05:52:33.203Z,74.67
2017-12-31T05:55:07.820Z,75.61
2017-12-31T05:57:36.501Z,74.15
2017-12-31T06:00:06.280Z,74.22
2017-12-31T06:02:34.568Z,74.72
2017-12-31T06:05:06.667Z,74.88
2017-12-31T06:07:34.957Z,73.93
2017-12-31T06:10:06.753Z,73.56
2017-12-31T06:12:35.045Z,74.16
2017-12-31T06:15:07.164Z,73.93
2017-12-31T06:17:35.450Z,72.71
2017-12-31T06:20:07.455Z,73.20
2017-12-31T06:22:36.384Z,73.91
2017-12-31T06:25:06.292Z,73.64
2017-12-31T06:27:34.928Z,74.01
2017-12-31T06:30:07.146Z,72.88
2017-12-31T06:32:35.711Z,72.99
2017-12-31T06:35:05.605Z,72.59
2017-12-31T06:37:33.862Z,72.55
2017-12-31T06:40:07.777Z,72.93
2017-12-31T06:42:36.042Z,72.61
2017-12-31T06:45:05.854Z,72.51
2017-12-31T06:47:34.129Z,71.92
2017-12-31T06:50:05.722Z,71.62
2017-12-31T06:52:34.126Z,72.17
2017-12-31T06:55:06.294Z,71.35
2017-12-31T06:57:34.573Z,71.74
2017-12-31T07:00:05.780Z,71.46
2017-12-31T07:02:34.594Z,71.21
2017-12-31T07:05:05.621Z,71.26
2017-12-31T07:07:33.896Z,70.58
2017-12-31T07:10:05.354Z,70.88
2017-12-31T07:12:33.640Z,71.12
2017-12-31T07:15:05.266Z,69.84
2017-12-31T07:17:33.819Z,69.91
2017-12-31T07:20:06.496Z,69.32
2017-12-31T07:22:34.772Z,70.42
2017-12-31T07:25:05.669Z,69.54
2017-12-31T07:27:33.933Z,69.33
2017-12-31T07:30:05.456Z,69.57
2017-12-31T07:32:33.716Z,69.16
2017-12-31T07:35:08.730Z,69.02
2017-12-31T07:37:37.020Z,68.83
2017-12-31T07:40:06.407Z,68.80
2017-12-31T07:42:34.933Z,68.69
2017-12-31T07:45:05.664Z,68.92
2017-12-31T07:47:33.959Z,68.60
2017-12-31T07:50:05.425Z,69.02
2017-12-31T07:52:34.308Z,68.42
2017-12-31T07:55:06.352Z,68.30
2017-12-31T07:57:34.627Z,68.81
2017-12-31T08:00:05.696Z,68.26
2017-12-31T08:02:33.984Z,68.22
2017-12-31T08:05:05.497Z,68.57
2017-12-31T08:07:33.756Z,68.19
2017-12-31T08:10:08.822Z,68.14
2017-12-31T08:12:37.096Z,68.21
2017-12-31T08:15:06.100Z,67.83
2017-12-31T08:17:34.379Z,67.34
2017-12-31T08:20:06.371Z,66.74
2017-12-31T08:22:34.642Z,67.01
2017-12-31T08:25:06.708Z,67.23
2017-12-31T08:27:34.941Z,67.15
2017-12-31T08:30:06.334Z,67.48
2017-12-31T08:32:35.588Z,67.18
2017-12-31T08:35:06.795Z,66.91
2017-12-31T08:37:35.260Z,66.24
2017-12-31T08:40:07.149Z,66.37
2017-12-31T08:42:35.435Z,65.91
2017-12-31T08:45:06.744Z,66.52
2017-12-31T08:47:35.052Z,66.97
2017-12-31T08:50:07.208Z,66.55
2017-12-31T08:52:35.499Z,66.37
2017-12-31T08:55:06.681Z,66.51
2017-12-31T08:57:34.958Z,66.41
2017-12-31T09:00:06.405Z,65.83
2017-12-31T09:02:35.424Z,66.01
2017-12-31T09:05:07.736Z,65.92
2017-12-31T09:07:36.015Z,66.21
2017-12-31T09:10:05.809Z,66.68
2017-12-31T09:12:34.082Z,66.38
2017-12-31T09:15:06.220Z,66.41
2017-12-31T09:17:34.495Z,66.21
2017-12-31T09:20:05.929Z,66.54
2017-12-31T09:22:34.194Z,66.85
2017-12-31T09:25:07.553Z,67.25
2017-12-31T09:27:36.073Z,67.14
2017-12-31T09:30:07.704Z,67.58
2017-12-31T09:32:36.016Z,67.53
2017-12-31T09:35:05.821Z,67.22
2017-12-31T09:37:34.104Z,67.12
2017-12-31T09:40:05.791Z,67.34
2017-12-31T09:42:34.085Z,67.15
2017-12-31T09:45:09.262Z,67.58
2017-12-31T09:47:37.556Z,67.76
2017-12-31T09:50:05.879Z,67.87
2017-12-31T09:52:34.451Z,68.41
2017-12-31T09:55:07.324Z,68.77
2017-12-31T09:57:35.665Z,68.83
2017-12-31T10:00:06.960Z,69.25
2017-12-31T10:02:35.396Z,69.64
2017-12-31T10:05:07.543Z,70.04
2017-12-31T10:07:35.827Z,70.16
2017-12-31T10:10:07.033Z,70.18
2017-12-31T10:12:35.308Z,70.51
2017-12-31T10:15:07.636Z,70.44
2017-12-31T10:17:36.051Z,70.41
2017-12-31T10:20:05.918Z,70.54
2017-12-31T10:22:34.183Z,70.72
2017-12-31T10:25:08.111Z,71.06
2017-12-31T10:27:36.369Z,70.90
2017-12-31T10:30:06.068Z,71.24
2017-12-31T10:32:34.338Z,71.34
2017-12-31T10:35:05.794Z,71.51
2017-12-31T10:37:34.062Z,71.68
2017-12-31T10:40:05.368Z,71.99
2017-12-31T10:42:33.640Z,72.22
2017-12-31T10:45:08.992Z,72.32
2017-12-31T10:47:37.285Z,72.79
2017-12-31T10:50:06.764Z,73.10
2017-12-31T10:52:35.321Z,73.21
2017-12-31T10:55:07.415Z,73.31
2017-12-31T10:57:35.685Z,73.18
2017-12-31T11:00:07.813Z,73.52
2017-12-31T11:02:36.089Z,73.62
2017-12-31T11:05:05.932Z,73.45
2017-12-31T11:07:34.485Z,73.16
2017-12-31T11:10:06.034Z,73.11
2017-12-31T11:12:34.306Z,72.91
2017-12-31T11:15:09.569Z,72.94
2017-12-31T11:17:37.874Z,72.96
2017-12-31T11:20:06.145Z,72.66
2017-12-31T11:22:34.681Z,72.99
2017-12-31T11:25:06.235Z,72.42
2017-12-31T11:27:34.736Z,72.27
2017-12-31T11:30:06.970Z,71.85
2017-12-31T11:32:35.380Z,71.15
2017-12-31T11:35:05.985Z,69.74
2017-12-31T11:37:34.252Z,69.52
2017-12-31T11:40:05.833Z,70.15
2017-12-31T11:42:34.101Z,71.33
2017-12-31T11:45:05.539Z,71.84
2017-12-31T11:47:33.805Z,72.37
2017-12-31T11:50:05.973Z,72.67
2017-12-31T11:52:34.258Z,73.15
2017-12-31T11:55:05.968Z,73.46
2017-12-31T11:57:34.236Z,73.13
2017-12-31T12:00:05.854Z,73.50
2017-12-31T12:02:34.171Z,74.09
2017-12-31T12:05:05.843Z,74.48
2017-12-31T12:07:34.108Z,74.35
2017-12-31T12:10:05.521Z,74.52
2017-12-31T12:12:33.982Z,75.11
2017-12-31T12:15:07.319Z,75.22
2017-12-31T12:17:35.596Z,75.45
2017-12-31T12:20:07.772Z,75.20
2017-12-31T12:22:36.081Z,75.27
2017-12-31T12:25:06.887Z,74.79
2017-12-31T12:27:35.176Z,74.27
2017-12-31T12:30:06.059Z,73.62
2017-12-31T12:32:34.344Z,71.34
2017-12-31T12:35:05.988Z,69.24
2017-12-31T12:37:34.281Z,69.00
2017-12-31T12:40:06.393Z,69.15
2017-12-31T12:42:35.731Z,69.67
2017-12-31T12:45:07.898Z,68.85
2017-12-31T12:47:36.163Z,66.98
2017-12-31T12:50:06.351Z,66.72
2017-12-31T12:52:35.188Z,66.62
2017-12-31T12:55:07.104Z,66.74
2017-12-31T12:57:35.389Z,67.04
2017-12-31T13:00:06.842Z,67.08
2017-12-31T13:02:35.582Z,67.55
2017-12-31T13:05:08.555Z,66.00
2017-12-31T13:07:36.820Z,64.34
2017-12-31T13:10:06.864Z,62.28
2017-12-31T13:12:35.128Z,62.71
2017-12-31T13:15:07.300Z,62.56
2017-12-31T13:17:35.604Z,62.55
2017-12-31T13:20:07.744Z,62.27
2017-12-31T13:22:36.019Z,61.69
2017-12-31T13:25:07.839Z,61.10
2017-12-31T13:27:40.352Z,61.54
2017-12-31T13:30:08.652Z,61.51
2017-12-31T13:32:36.940Z,61.33
2017-12-31T13:35:06.448Z,61.64
2017-12-31T13:37:34.902Z,61.10
2017-12-31T13:40:07.049Z,61.32
2017-12-31T13:42:35.312Z,60.93
2017-12-31T13:45:06.230Z,61.71
2017-12-31T13:47:34.496Z,62.49
2017-12-31T13:50:06.260Z,62.50
2017-12-31T13:52:34.873Z,62.13
2017-12-31T13:55:06.788Z,62.61
2017-12-31T13:57:35.045Z,62.72
2017-12-31T14:00:06.461Z,62.17
2017-12-31T14:02:34.733Z,62.27
2017-12-31T14:05:08.665Z,62.24
2017-12-31T14:07:36.961Z,61.84
2017-12-31T14:10:10.773Z,61.93
2017-12-31T14:12:39.073Z,61.85
2017-12-31T14:15:07.351Z,62.24
2017-12-31T14:17:35.838Z,62.27
2017-12-31T14:20:08.492Z,62.10
2017-12-31T14:22:36.805Z,62.36
2017-12-31T14:25:08.024Z,62.11
2017-12-31T14:27:36.351Z,61.73
2017-12-31T14:30:07.556Z,62.11
2017-12-31T14:32:35.853Z,61.90
2017-12-31T14:35:07.040Z,61.56
2017-12-31T14:37:35.316Z,62.07
2017-12-31T14:40:07.444Z,62.11
2017-12-31T14:42:35.738Z,62.39
2017-12-31T14:45:06.938Z,62.63
2017-12-31T14:47:35.249Z,62.46
2017-12-31T14:50:07.526Z,62.57
2017-12-31T14:52:35.749Z,61.93
2017-12-31T14:55:07.856Z,61.88
2017-12-31T14:57:36.125Z,62.20
2017-12-31T15:00:06.870Z,61.84
2017-12-31T15:02:35.150Z,62.02
2017-12-31T15:05:06.467Z,62.09
2017-12-31T15:07:34.729Z,62.59
2017-12-31T15:10:06.398Z,62.15
2017-12-31T15:12:34.685Z,61.87
2017-12-31T15:15:06.053Z,61.90
2017-12-31T15:17:34.376Z,62.14
2017-12-31T15:20:09.418Z,61.92
2017-12-31T15:22:37.664Z,62.15
2017-12-31T15:25:06.265Z,62.08
2017-12-31T15:27:34.677Z,61.80
2017-12-31T15:30:09.687Z,61.89
2017-12-31T15:32:37.997Z,61.95
2017-12-31T15:35:06.273Z,61.99
2017-12-31T15:37:34.572Z,62.13
2017-12-31T15:40:06.061Z,61.84
2017-12-31T15:42:34.572Z,62.06
2017-12-31T15:45:09.707Z,62.18
2017-12-31T15:47:37.981Z,62.64
2017-12-31T15:50:06.499Z,62.23
2017-12-31T15:52:34.779Z,62.04
2017-12-31T15:55:09.839Z,62.11
2017-12-31T15:57:38.754Z,62.18
2017-12-31T16:00:06.999Z,62.17
2017-12-31T16:02:35.284Z,62.08
2017-12-31T16:05:06.687Z,62.12
2017-12-31T16:07:34.966Z,62.27
2017-12-31T16:10:07.063Z,62.18
2017-12-31T16:12:35.592Z,62.16
2017-12-31T16:15:06.821Z,61.86
2017-12-31T16:17:35.109Z,61.87
2017-12-31T16:20:06.533Z,62.14
2017-12-31T16:22:34.812Z,61.99
2017-12-31T16:25:06.607Z,61.88
2017-12-31T16:27:35.876Z,61.97
2017-12-31T16:30:07.450Z,62.21
2017-12-31T16:32:35.864Z,62.41
2017-12-31T16:35:08.463Z,62.41
2017-12-31T16:37:36.754Z,62.33
2017-12-31T16:40:06.288Z,62.65
2017-12-31T16:42:34.572Z,62.81
2017-12-31T16:45:05.923Z,62.80
2017-12-31T16:47:34.276Z,62.82
2017-12-31T16:50:09.280Z,62.66
2017-12-31T16:52:37.573Z,62.67
2017-12-31T16:55:08.182Z,62.09
2017-12-31T16:57:36.442Z,61.87
2017-12-31T17:00:06.587Z,61.99
2017-12-31T17:02:34.909Z,61.58
2017-12-31T17:05:08.968Z,61.67
2017-12-31T17:07:37.244Z,61.83
2017-12-31T17:10:06.968Z,61.99
2017-12-31T17:12:35.371Z,61.86
2017-12-31T17:15:06.780Z,60.87
2017-12-31T17:17:35.040Z,61.11
2017-12-31T17:20:07.136Z,61.51
2017-12-31T17:22:35.413Z,61.52
2017-12-31T17:25:06.775Z,61.84
2017-12-31T17:27:35.036Z,61.52
2017-12-31T17:30:06.436Z,61.78
2017-12-31T17:32:34.716Z,61.50
2017-12-31T17:35:09.762Z,61.64
2017-12-31T17:37:38.053Z,61.83
2017-12-31T17:40:06.420Z,60.78
2017-12-31T17:42:34.707Z,60.98
2017-12-31T17:45:06.203Z,60.76
2017-12-31T17:47:34.516Z,60.93
2017-12-31T17:50:09.620Z,60.88
2017-12-31T17:52:37.907Z,60.64
2017-12-31T17:55:06.640Z,60.55
2017-12-31T17:57:34.929Z,61.05
2017-12-31T18:00:07.076Z,60.89
2017-12-31T18:02:35.356Z,60.50
2017-12-31T18:05:08.410Z,60.43
2017-12-31T18:07:37.231Z,61.10
2017-12-31T18:10:06.852Z,60.97
2017-12-31T18:12:35.152Z,61.12
2017-12-31T18:15:09.328Z,61.05
2017-12-31T18:17:37.617Z,60.54
2017-12-31T18:20:07.168Z,60.69
2017-12-31T18:22:35.677Z,60.69
2017-12-31T18:25:07.676Z,60.46
2017-12-31T18:27:35.943Z,60.69
2017-12-31T18:30:08.081Z,60.52
2017-12-31T18:32:36.342Z,60.44
2017-12-31T18:35:08.259Z,60.48
2017-12-31T18:37:36.524Z,60.79
2017-12-31T18:40:06.428Z,60.57
2017-12-31T18:42:34.745Z,60.52
2017-12-31T18:45:06.448Z,60.36
2017-12-31T18:47:35.320Z,60.28
2017-12-31T18:50:06.513Z,60.20
2017-12-31T18:52:34.812Z,59.99
2017-12-31T18:55:09.960Z,60.55
2017-12-31T18:57:38.272Z,60.54
2017-12-31T19:00:06.549Z,60.20
2017-12-31T19:02:34.853Z,60.15
2017-12-31T19:05:06.383Z,60.09
2017-12-31T19:07:35.183Z,60.16
2017-12-31T19:10:07.236Z,60.36
2017-12-31T19:12:35.705Z,60.99
2017-12-31T19:15:07.616Z,61.36
2017-12-31T19:17:35.899Z,61.40
2017-12-31T19:20:06.450Z,61.99
2017-12-31T19:22:34.757Z,62.10
2017-12-31T19:25:08.010Z,61.49
2017-12-31T19:27:36.274Z,61.54
2017-12-31T19:30:07.704Z,61.79
2017-12-31T19:32:36.200Z,62.13
2017-12-31T19:35:08.188Z,61.79
2017-12-31T19:37:36.883Z,61.82
2017-12-31T19:40:06.767Z,61.77
2017-12-31T19:42:35.041Z,61.63
2017-12-31T19:45:07.181Z,61.66
2017-12-31T19:47:35.668Z,61.52
2017-12-31T19:50:05.815Z,61.27
2017-12-31T19:52:34.112Z,60.87
2017-12-31T19:55:06.204Z,61.23
2017-12-31T19:57:35.036Z,61.21
2017-12-31T20:00:06.676Z,61.43
2017-12-31T20:02:34.950Z,61.54
2017-12-31T20:05:07.073Z,61.26
2017-12-31T20:07:35.442Z,61.33
2017-12-31T20:10:06.636Z,61.06
2017-12-31T20:12:34.924Z,61.30
2017-12-31T20:15:06.140Z,61.43
2017-12-31T20:17:34.480Z,61.68
2017-12-31T20:20:06.952Z,61.78
2017-12-31T20:22:35.216Z,61.46
2017-12-31T20:25:06.827Z,61.43
2017-12-31T20:27:35.119Z,61.50
2017-12-31T20:30:07.532Z,61.52
2017-12-31T20:32:35.816Z,61.62
2017-12-31T20:35:05.718Z,62.06
2017-12-31T20:37:34.098Z,62.21
2017-12-31T20:40:09.085Z,62.55
2017-12-31T20:42:37.684Z,62.66
2017-12-31T20:45:06.100Z,63.11
2017-12-31T20:47:34.372Z,63.63
2017-12-31T20:50:05.569Z,64.50
2017-12-31T20:52:33.840Z,64.76
2017-12-31T20:55:05.236Z,69.90
2017-12-31T20:57:33.517Z,73.97
2017-12-31T21:00:08.576Z,74.16
2017-12-31T21:02:36.848Z,74.73
2017-12-31T21:05:06.426Z,76.00
2017-12-31T21:07:34.717Z,74.69
2017-12-31T21:10:06.849Z,74.75
2017-12-31T21:12:35.162Z,72.20
2017-12-31T21:15:06.864Z,72.22
2017-12-31T21:17:35.147Z,71.82
2017-12-31T21:20:07.504Z,71.78
2017-12-31T21:22:36.069Z,71.97
2017-12-31T21:25:05.838Z,70.57
2017-12-31T21:27:34.361Z,69.47
2017-12-31T21:30:05.558Z,69.75
2017-12-31T21:32:33.834Z,68.62
2017-12-31T21:35:07.828Z,68.73
2017-12-31T21:37:36.104Z,69.26
2017-12-31T21:40:06.024Z,68.65
2017-12-31T21:42:34.409Z,69.27
2017-12-31T21:45:06.324Z,69.71
2017-12-31T21:47:34.613Z,69.28
2017-12-31T21:50:05.636Z,68.99
2017-12-31T21:52:34.056Z,69.03
2017-12-31T21:55:09.219Z,69.29
2017-12-31T21:57:37.509Z,69.33
2017-12-31T22:00:05.805Z,69.22
2017-12-31T22:02:34.324Z,69.50
2017-12-31T22:05:05.687Z,68.81
2017-12-31T22:07:33.952Z,69.27
2017-12-31T22:10:05.482Z,69.58
2017-12-31T22:12:33.868Z,69.37
2017-12-31T22:15:05.095Z,69.44
2017-12-31T22:17:33.401Z,70.17
2017-12-31T22:20:05.111Z,70.51
2017-12-31T22:22:34.357Z,70.69
2017-12-31T22:25:06.356Z,70.64
2017-12-31T22:27:34.647Z,71.23
2017-12-31T22:30:05.734Z,71.27
2017-12-31T22:32:33.997Z,71.17
2017-12-31T22:35:05.628Z,71.25
2017-12-31T22:37:33.951Z,71.27
2017-12-31T22:40:09.221Z,70.99
2017-12-31T22:42:37.508Z,70.93
2017-12-31T22:45:06.128Z,70.63
2017-12-31T22:47:34.424Z,71.17
2017-12-31T22:50:05.708Z,71.08
2017-12-31T22:52:33.980Z,71.10
2017-12-31T22:55:07.797Z,70.95
2017-12-31T22:57:36.199Z,70.92
2017-12-31T23:00:05.956Z,70.86
2017-12-31T23:02:34.285Z,71.42
2017-12-31T23:05:05.709Z,70.97
2017-12-31T23:07:34.007Z,70.69
2017-12-31T23:10:07.235Z,71.36
2017-12-31T23:12:35.536Z,70.45
2017-12-31T23:15:05.925Z,70.43
2017-12-31T23:17:34.211Z,69.20
2017-12-31T23:20:10.312Z,68.38
2017-12-31T23:22:38.664Z,68.38
2017-12-31T23:25:06.950Z,68.61
2017-12-31T23:27:35.273Z,68.54
2017-12-31T23:30:06.639Z,67.21
2017-12-31T23:32:34.936Z,67.32
2017-12-31T23:35:08.963Z,67.51
2017-12-31T23:37:37.216Z,67.10
2017-12-31T23:40:06.314Z,67.05
2017-12-31T23:42:34.617Z,66.96
2017-12-31T23:45:06.600Z,66.64
2017-12-31T23:47:35.111Z,67.06
2017-12-31T23:50:07.202Z,66.59
2017-12-31T23:52:35.800Z,66.63
2017-12-31T23:55:07.597Z,65.76
2017-12-31T23:57:35.896Z,66.41
